Los Teques, Venezuela
Current Conditions -  °F | °C
As of 1:00 AM on Saturday 29 Nov 2014 (Local Time) from SVMI Reporting Station
Clear Clear  
Wind Chill: 77°   Ceiling: Unl
Heat Index: 79°   Visibility: 6mi
Dew Point: 70°   Wind: 3mph
Humidity: 78%   Direction: 50°NE
Pressure: 29.91"   Gusts: NA
Location:  10.42°N, 67.02°W
Report Text: SVMI 290500Z 05003KT CAVOK 25/21 Q1013 NOSIG
Loading
Personal Weather Stations






























Interactive Weather Map New forecast layout! Learn more

10-Day Weather Forecast

Advertisements
Track Severe Weather on mobile